sensor_id;sensor_type;location;lat;lon;timestamp;temperature;humidity
68924;DHT22;55961;52.156;20.942;2022-12-11T00:01:15;-0.30;81.80
68924;DHT22;55961;52.156;20.942;2022-12-11T00:03:41;-0.30;81.90
68924;DHT22;55961;52.156;20.942;2022-12-11T00:06:09;-0.30;81.80
68924;DHT22;55961;52.156;20.942;2022-12-11T00:08:36;-0.30;81.70
68924;DHT22;55961;52.156;20.942;2022-12-11T00:11:02;-0.30;81.60
68924;DHT22;55961;52.156;20.942;2022-12-11T00:13:28;-0.30;81.70
68924;DHT22;55961;52.156;20.942;2022-12-11T00:15:54;-0.30;81.80
68924;DHT22;55961;52.156;20.942;2022-12-11T00:18:22;-0.30;81.60
68924;DHT22;55961;52.156;20.942;2022-12-11T00:20:48;-0.40;81.70
68924;DHT22;55961;52.156;20.942;2022-12-11T00:23:14;-0.40;81.80
68924;DHT22;55961;52.156;20.942;2022-12-11T00:25:41;-0.40;81.90
68924;DHT22;55961;52.156;20.942;2022-12-11T00:28:09;-0.40;81.90
68924;DHT22;55961;52.156;20.942;2022-12-11T00:30:39;-0.40;82.00
68924;DHT22;55961;52.156;20.942;2022-12-11T00:33:05;-0.40;81.90
68924;DHT22;55961;52.156;20.942;2022-12-11T00:35:31;-0.40;81.90
68924;DHT22;55961;52.156;20.942;2022-12-11T00:37:57;-0.40;82.00
68924;DHT22;55961;52.156;20.942;2022-12-11T00:40:23;-0.40;81.90
68924;DHT22;55961;52.156;20.942;2022-12-11T00:42:48;-0.50;82.00
68924;DHT22;55961;52.156;20.942;2022-12-11T00:45:14;-0.50;82.00
68924;DHT22;55961;52.156;20.942;2022-12-11T00:47:40;-0.50;82.00
68924;DHT22;55961;52.156;20.942;2022-12-11T00:50:07;-0.50;82.00
68924;DHT22;55961;52.156;20.942;2022-12-11T00:52:33;-0.50;82.00
68924;DHT22;55961;52.156;20.942;2022-12-11T00:54:59;-0.50;82.00
68924;DHT22;55961;52.156;20.942;2022-12-11T00:57:25;-0.50;82.00
68924;DHT22;55961;52.156;20.942;2022-12-11T00:59:51;-0.50;82.00
68924;DHT22;55961;52.156;20.942;2022-12-11T01:02:17;-0.60;82.00
68924;DHT22;55961;52.156;20.942;2022-12-11T01:04:43;-0.60;82.20
68924;DHT22;55961;52.156;20.942;2022-12-11T01:07:08;-0.60;82.30
68924;DHT22;55961;52.156;20.942;2022-12-11T01:09:34;-0.60;82.30
68924;DHT22;55961;52.156;20.942;2022-12-11T01:12:19;-0.60;82.40
68924;DHT22;55961;52.156;20.942;2022-12-11T01:14:45;-0.60;82.40
68924;DHT22;55961;52.156;20.942;2022-12-11T01:17:11;-0.60;82.40
68924;DHT22;55961;52.156;20.942;2022-12-11T01:19:37;-0.60;82.40
68924;DHT22;55961;52.156;20.942;2022-12-11T01:22:03;-0.60;82.30
68924;DHT22;55961;52.156;20.942;2022-12-11T01:24:29;-0.60;82.20
68924;DHT22;55961;52.156;20.942;2022-12-11T01:26:54;-0.60;82.30
68924;DHT22;55961;52.156;20.942;2022-12-11T01:29:20;-0.60;82.40
68924;DHT22;55961;52.156;20.942;2022-12-11T01:31:46;-0.70;82.40
68924;DHT22;55961;52.156;20.942;2022-12-11T01:34:12;-0.70;82.40
68924;DHT22;55961;52.156;20.942;2022-12-11T01:36:38;-0.70;82.40
68924;DHT22;55961;52.156;20.942;2022-12-11T01:39:04;-0.60;82.40
68924;DHT22;55961;52.156;20.942;2022-12-11T01:41:30;-0.70;82.20
68924;DHT22;55961;52.156;20.942;2022-12-11T01:46:51;-0.60;82.00
68924;DHT22;55961;52.156;20.942;2022-12-11T01:49:20;-0.70;82.00
68924;DHT22;55961;52.156;20.942;2022-12-11T01:54:28;-0.70;82.00
68924;DHT22;55961;52.156;20.942;2022-12-11T01:56:57;-0.70;81.90
68924;DHT22;55961;52.156;20.942;2022-12-11T01:59:28;-0.70;81.90
68924;DHT22;55961;52.156;20.942;2022-12-11T02:02:08;-0.70;81.90
68924;DHT22;55961;52.156;20.942;2022-12-11T02:04:38;-0.70;81.70
68924;DHT22;55961;52.156;20.942;2022-12-11T02:07:04;-0.70;81.50
68924;DHT22;55961;52.156;20.942;2022-12-11T02:09:34;-0.70;81.30
68924;DHT22;55961;52.156;20.942;2022-12-11T02:28:36;-0.90;80.90
68924;DHT22;55961;52.156;20.942;2022-12-11T02:31:15;-0.90;81.00
68924;DHT22;55961;52.156;20.942;2022-12-11T02:34:22;-0.90;81.10
68924;DHT22;55961;52.156;20.942;2022-12-11T02:36:50;-0.90;81.00
68924;DHT22;55961;52.156;20.942;2022-12-11T02:39:18;-0.90;80.70
68924;DHT22;55961;52.156;20.942;2022-12-11T02:41:50;-0.90;80.50
68924;DHT22;55961;52.156;20.942;2022-12-11T02:44:20;-0.90;80.50
68924;DHT22;55961;52.156;20.942;2022-12-11T02:46:47;-1.00;80.60
68924;DHT22;55961;52.156;20.942;2022-12-11T02:49:13;-1.00;80.40
68924;DHT22;55961;52.156;20.942;2022-12-11T02:51:41;-1.00;80.20
68924;DHT22;55961;52.156;20.942;2022-12-11T02:54:20;-1.00;80.40
68924;DHT22;55961;52.156;20.942;2022-12-11T02:56:51;-1.00;80.20
68924;DHT22;55961;52.156;20.942;2022-12-11T02:59:23;-1.00;80.30
68924;DHT22;55961;52.156;20.942;2022-12-11T03:01:51;-1.00;80.10
68924;DHT22;55961;52.156;20.942;2022-12-11T03:04:17;-1.10;80.00
68924;DHT22;55961;52.156;20.942;2022-12-11T03:06:48;-1.10;80.10
68924;DHT22;55961;52.156;20.942;2022-12-11T03:09:15;-1.10;80.20
68924;DHT22;55961;52.156;20.942;2022-12-11T03:11:41;-1.10;80.40
68924;DHT22;55961;52.156;20.942;2022-12-11T03:14:07;-1.10;80.50
68924;DHT22;55961;52.156;20.942;2022-12-11T03:16:37;-1.10;80.50
68924;DHT22;55961;52.156;20.942;2022-12-11T03:21:56;-1.10;80.30
68924;DHT22;55961;52.156;20.942;2022-12-11T03:24:49;-1.10;80.30
68924;DHT22;55961;52.156;20.942;2022-12-11T03:27:27;-1.10;80.30
68924;DHT22;55961;52.156;20.942;2022-12-11T03:30:07;-1.10;80.20
68924;DHT22;55961;52.156;20.942;2022-12-11T03:32:54;-1.10;80.40
68924;DHT22;55961;52.156;20.942;2022-12-11T03:35:33;-1.10;80.40
68924;DHT22;55961;52.156;20.942;2022-12-11T03:38:17;-1.20;80.40
68924;DHT22;55961;52.156;20.942;2022-12-11T03:40:49;-1.20;80.40
68924;DHT22;55961;52.156;20.942;2022-12-11T03:43:17;-1.20;80.50
68924;DHT22;55961;52.156;20.942;2022-12-11T03:45:44;-1.20;80.30
68924;DHT22;55961;52.156;20.942;2022-12-11T03:48:13;-1.20;80.20
68924;DHT22;55961;52.156;20.942;2022-12-11T03:50:41;-1.20;80.30
68924;DHT22;55961;52.156;20.942;2022-12-11T03:53:07;-1.20;80.20
68924;DHT22;55961;52.156;20.942;2022-12-11T03:55:36;-1.20;80.10
68924;DHT22;55961;52.156;20.942;2022-12-11T03:58:03;-1.20;80.20
68924;DHT22;55961;52.156;20.942;2022-12-11T04:00:29;-1.30;80.30
68924;DHT22;55961;52.156;20.942;2022-12-11T04:02:55;-1.30;80.30
68924;DHT22;55961;52.156;20.942;2022-12-11T04:05:52;-1.30;80.40
68924;DHT22;55961;52.156;20.942;2022-12-11T04:08:19;-1.30;80.40
68924;DHT22;55961;52.156;20.942;2022-12-11T04:10:45;-1.30;80.50
68924;DHT22;55961;52.156;20.942;2022-12-11T04:13:11;-1.30;80.50
68924;DHT22;55961;52.156;20.942;2022-12-11T04:15:38;-1.30;80.60
68924;DHT22;55961;52.156;20.942;2022-12-11T04:18:05;-1.30;80.60
68924;DHT22;55961;52.156;20.942;2022-12-11T04:20:54;-1.30;80.60
68924;DHT22;55961;52.156;20.942;2022-12-11T04:23:38;-1.30;80.80
68924;DHT22;55961;52.156;20.942;2022-12-11T04:26:23;-1.30;80.70
68924;DHT22;55961;52.156;20.942;2022-12-11T04:28:49;-1.30;80.50
68924;DHT22;55961;52.156;20.942;2022-12-11T04:31:17;-1.30;80.40
68924;DHT22;55961;52.156;20.942;2022-12-11T04:33:43;-1.30;80.40
68924;DHT22;55961;52.156;20.942;2022-12-11T04:36:10;-1.30;80.50
68924;DHT22;55961;52.156;20.942;2022-12-11T04:38:36;-1.30;80.50
68924;DHT22;55961;52.156;20.942;2022-12-11T04:41:07;-1.30;80.10
68924;DHT22;55961;52.156;20.942;2022-12-11T04:43:34;-1.30;80.00
68924;DHT22;55961;52.156;20.942;2022-12-11T04:46:04;-1.40;80.20
68924;DHT22;55961;52.156;20.942;2022-12-11T04:48:31;-1.40;80.20
68924;DHT22;55961;52.156;20.942;2022-12-11T04:50:57;-1.40;80.40
68924;DHT22;55961;52.156;20.942;2022-12-11T04:53:24;-1.40;80.40
68924;DHT22;55961;52.156;20.942;2022-12-11T04:55:50;-1.40;80.30
68924;DHT22;55961;52.156;20.942;2022-12-11T04:58:16;-1.40;80.30
68924;DHT22;55961;52.156;20.942;2022-12-11T05:00:41;-1.40;80.30
68924;DHT22;55961;52.156;20.942;2022-12-11T05:03:08;-1.40;80.30
68924;DHT22;55961;52.156;20.942;2022-12-11T05:05:34;-1.50;80.50
68924;DHT22;55961;52.156;20.942;2022-12-11T05:08:00;-1.50;80.30
68924;DHT22;55961;52.156;20.942;2022-12-11T05:10:25;-1.50;80.60
68924;DHT22;55961;52.156;20.942;2022-12-11T05:12:51;-1.50;80.70
68924;DHT22;55961;52.156;20.942;2022-12-11T05:15:17;-1.50;80.60
68924;DHT22;55961;52.156;20.942;2022-12-11T05:17:43;-1.50;80.50
68924;DHT22;55961;52.156;20.942;2022-12-11T05:20:10;-1.50;80.50
68924;DHT22;55961;52.156;20.942;2022-12-11T05:22:37;-1.60;80.50
68924;DHT22;55961;52.156;20.942;2022-12-11T05:25:03;-1.60;80.60
68924;DHT22;55961;52.156;20.942;2022-12-11T05:27:29;-1.60;80.70
68924;DHT22;55961;52.156;20.942;2022-12-11T05:29:55;-1.60;81.00
68924;DHT22;55961;52.156;20.942;2022-12-11T05:32:21;-1.60;81.30
68924;DHT22;55961;52.156;20.942;2022-12-11T05:34:49;-1.60;81.40
68924;DHT22;55961;52.156;20.942;2022-12-11T05:37:15;-1.60;81.20
68924;DHT22;55961;52.156;20.942;2022-12-11T05:39:41;-1.60;81.40
68924;DHT22;55961;52.156;20.942;2022-12-11T05:42:07;-1.60;81.50
68924;DHT22;55961;52.156;20.942;2022-12-11T05:44:33;-1.60;81.20
68924;DHT22;55961;52.156;20.942;2022-12-11T05:46:59;-1.60;80.90
68924;DHT22;55961;52.156;20.942;2022-12-11T05:49:25;-1.70;80.90
68924;DHT22;55961;52.156;20.942;2022-12-11T05:51:51;-1.70;81.10
68924;DHT22;55961;52.156;20.942;2022-12-11T05:54:17;-1.70;81.20
68924;DHT22;55961;52.156;20.942;2022-12-11T05:56:43;-1.70;81.20
68924;DHT22;55961;52.156;20.942;2022-12-11T05:59:09;-1.70;81.20
68924;DHT22;55961;52.156;20.942;2022-12-11T06:01:39;-1.70;81.00
68924;DHT22;55961;52.156;20.942;2022-12-11T06:04:06;-1.70;81.00
68924;DHT22;55961;52.156;20.942;2022-12-11T06:06:35;-1.70;81.00
68924;DHT22;55961;52.156;20.942;2022-12-11T06:09:01;-1.70;81.10
68924;DHT22;55961;52.156;20.942;2022-12-11T06:11:29;-1.70;81.30
68924;DHT22;55961;52.156;20.942;2022-12-11T06:13:56;-1.70;81.30
68924;DHT22;55961;52.156;20.942;2022-12-11T06:16:23;-1.70;81.50
68924;DHT22;55961;52.156;20.942;2022-12-11T06:18:49;-1.70;81.40
68924;DHT22;55961;52.156;20.942;2022-12-11T06:21:28;-1.70;81.10
68924;DHT22;55961;52.156;20.942;2022-12-11T06:23:56;-1.80;80.70
68924;DHT22;55961;52.156;20.942;2022-12-11T06:26:22;-1.80;80.60
68924;DHT22;55961;52.156;20.942;2022-12-11T06:28:49;-1.80;80.50
68924;DHT22;55961;52.156;20.942;2022-12-11T06:31:15;-1.80;80.20
68924;DHT22;55961;52.156;20.942;2022-12-11T06:33:41;-1.80;80.20
68924;DHT22;55961;52.156;20.942;2022-12-11T06:36:10;-1.80;80.30
68924;DHT22;55961;52.156;20.942;2022-12-11T06:38:36;-1.80;80.50
68924;DHT22;55961;52.156;20.942;2022-12-11T06:41:03;-1.80;80.30
68924;DHT22;55961;52.156;20.942;2022-12-11T06:43:31;-1.90;80.20
68924;DHT22;55961;52.156;20.942;2022-12-11T06:45:57;-1.90;80.30
68924;DHT22;55961;52.156;20.942;2022-12-11T06:48:24;-1.90;80.50
68924;DHT22;55961;52.156;20.942;2022-12-11T06:50:50;-1.90;80.50
68924;DHT22;55961;52.156;20.942;2022-12-11T06:53:16;-1.90;80.60
68924;DHT22;55961;52.156;20.942;2022-12-11T06:55:42;-1.90;80.70
68924;DHT22;55961;52.156;20.942;2022-12-11T06:58:08;-1.80;80.60
68924;DHT22;55961;52.156;20.942;2022-12-11T07:00:35;-1.90;80.60
68924;DHT22;55961;52.156;20.942;2022-12-11T07:03:01;-1.90;80.60
68924;DHT22;55961;52.156;20.942;2022-12-11T07:05:27;-1.90;80.60
68924;DHT22;55961;52.156;20.942;2022-12-11T07:07:53;-1.90;80.20
68924;DHT22;55961;52.156;20.942;2022-12-11T07:10:20;-1.90;79.80
68924;DHT22;55961;52.156;20.942;2022-12-11T07:12:46;-1.90;79.80
68924;DHT22;55961;52.156;20.942;2022-12-11T07:15:12;-1.90;79.90
68924;DHT22;55961;52.156;20.942;2022-12-11T07:17:38;-1.90;79.90
68924;DHT22;55961;52.156;20.942;2022-12-11T07:20:05;-1.90;79.60
68924;DHT22;55961;52.156;20.942;2022-12-11T07:22:30;-1.90;79.70
68924;DHT22;55961;52.156;20.942;2022-12-11T07:24:56;-1.90;79.80
68924;DHT22;55961;52.156;20.942;2022-12-11T07:27:22;-2.00;79.80
68924;DHT22;55961;52.156;20.942;2022-12-11T07:29:50;-2.00;79.90
68924;DHT22;55961;52.156;20.942;2022-12-11T07:32:16;-2.00;79.80
68924;DHT22;55961;52.156;20.942;2022-12-11T07:34:42;-2.00;79.90
68924;DHT22;55961;52.156;20.942;2022-12-11T07:37:08;-2.00;79.90
68924;DHT22;55961;52.156;20.942;2022-12-11T07:39:36;-2.00;79.80
68924;DHT22;55961;52.156;20.942;2022-12-11T07:42:01;-2.00;79.90
68924;DHT22;55961;52.156;20.942;2022-12-11T07:44:27;-2.00;80.30
68924;DHT22;55961;52.156;20.942;2022-12-11T07:46:53;-2.00;80.50
68924;DHT22;55961;52.156;20.942;2022-12-11T07:49:19;-2.00;80.40
68924;DHT22;55961;52.156;20.942;2022-12-11T07:51:48;-2.00;80.40
68924;DHT22;55961;52.156;20.942;2022-12-11T07:54:15;-2.00;80.20
68924;DHT22;55961;52.156;20.942;2022-12-11T07:56:45;-2.00;80.10
68924;DHT22;55961;52.156;20.942;2022-12-11T07:59:11;-2.00;80.00
68924;DHT22;55961;52.156;20.942;2022-12-11T08:01:38;-2.10;79.80
68924;DHT22;55961;52.156;20.942;2022-12-11T08:04:09;-2.10;79.30
68924;DHT22;55961;52.156;20.942;2022-12-11T08:06:38;-2.10;79.30
68924;DHT22;55961;52.156;20.942;2022-12-11T08:09:07;-2.10;79.00
68924;DHT22;55961;52.156;20.942;2022-12-11T08:11:33;-2.10;79.10
68924;DHT22;55961;52.156;20.942;2022-12-11T08:14:00;-2.10;79.20
68924;DHT22;55961;52.156;20.942;2022-12-11T08:16:26;-2.20;79.50
68924;DHT22;55961;52.156;20.942;2022-12-11T08:18:52;-2.20;79.50
68924;DHT22;55961;52.156;20.942;2022-12-11T08:21:20;-2.20;80.10
68924;DHT22;55961;52.156;20.942;2022-12-11T08:23:47;-2.20;80.00
68924;DHT22;55961;52.156;20.942;2022-12-11T08:26:16;-2.20;79.70
68924;DHT22;55961;52.156;20.942;2022-12-11T08:28:42;-2.20;79.60
68924;DHT22;55961;52.156;20.942;2022-12-11T08:31:10;-2.20;79.40
68924;DHT22;55961;52.156;20.942;2022-12-11T08:33:38;-2.20;79.10
68924;DHT22;55961;52.156;20.942;2022-12-11T08:36:09;-2.20;78.70
68924;DHT22;55961;52.156;20.942;2022-12-11T08:38:36;-2.20;78.90
68924;DHT22;55961;52.156;20.942;2022-12-11T08:41:14;-2.20;79.30
68924;DHT22;55961;52.156;20.942;2022-12-11T08:43:41;-2.20;79.40
68924;DHT22;55961;52.156;20.942;2022-12-11T08:46:07;-2.20;79.30
68924;DHT22;55961;52.156;20.942;2022-12-11T08:48:34;-2.20;79.20
68924;DHT22;55961;52.156;20.942;2022-12-11T08:51:03;-2.20;79.10
68924;DHT22;55961;52.156;20.942;2022-12-11T08:53:30;-2.20;78.90
68924;DHT22;55961;52.156;20.942;2022-12-11T08:56:04;-2.20;78.70
68924;DHT22;55961;52.156;20.942;2022-12-11T08:58:31;-2.30;78.20
68924;DHT22;55961;52.156;20.942;2022-12-11T09:00:56;-2.30;78.40
68924;DHT22;55961;52.156;20.942;2022-12-11T09:03:23;-2.30;78.70
68924;DHT22;55961;52.156;20.942;2022-12-11T09:05:49;-2.30;78.80
68924;DHT22;55961;52.156;20.942;2022-12-11T09:08:15;-2.30;79.20
68924;DHT22;55961;52.156;20.942;2022-12-11T09:10:41;-2.30;79.20
68924;DHT22;55961;52.156;20.942;2022-12-11T09:13:07;-2.30;79.40
68924;DHT22;55961;52.156;20.942;2022-12-11T09:15:33;-2.20;79.30
68924;DHT22;55961;52.156;20.942;2022-12-11T09:18:00;-2.20;79.20
68924;DHT22;55961;52.156;20.942;2022-12-11T09:20:26;-2.20;79.40
68924;DHT22;55961;52.156;20.942;2022-12-11T09:22:52;-2.20;79.40
68924;DHT22;55961;52.156;20.942;2022-12-11T09:25:18;-2.20;79.30
68924;DHT22;55961;52.156;20.942;2022-12-11T09:27:44;-2.20;79.10
68924;DHT22;55961;52.156;20.942;2022-12-11T09:30:10;-2.20;79.20
68924;DHT22;55961;52.156;20.942;2022-12-11T09:32:36;-2.20;79.20
68924;DHT22;55961;52.156;20.942;2022-12-11T09:35:01;-2.10;79.10
68924;DHT22;55961;52.156;20.942;2022-12-11T09:37:27;-2.10;79.00
68924;DHT22;55961;52.156;20.942;2022-12-11T09:39:53;-2.10;78.70
68924;DHT22;55961;52.156;20.942;2022-12-11T09:45:13;-2.10;78.60
68924;DHT22;55961;52.156;20.942;2022-12-11T09:47:51;-2.10;78.70
68924;DHT22;55961;52.156;20.942;2022-12-11T09:50:25;-2.10;78.40
68924;DHT22;55961;52.156;20.942;2022-12-11T09:53:17;-2.10;78.00
68924;DHT22;55961;52.156;20.942;2022-12-11T09:55:59;-2.10;78.00
68924;DHT22;55961;52.156;20.942;2022-12-11T09:58:38;-2.10;77.90
68924;DHT22;55961;52.156;20.942;2022-12-11T10:01:21;-2.10;77.80
68924;DHT22;55961;52.156;20.942;2022-12-11T10:07:05;-2.10;77.80
68924;DHT22;55961;52.156;20.942;2022-12-11T10:09:48;-2.10;77.70
68924;DHT22;55961;52.156;20.942;2022-12-11T10:17:37;-2.10;77.90
68924;DHT22;55961;52.156;20.942;2022-12-11T10:22:38;-2.10;77.70
68924;DHT22;55961;52.156;20.942;2022-12-11T10:25:06;-2.10;78.00
68924;DHT22;55961;52.156;20.942;2022-12-11T10:27:38;-2.10;78.40
68924;DHT22;55961;52.156;20.942;2022-12-11T10:35:51;-2.10;78.00
68924;DHT22;55961;52.156;20.942;2022-12-11T10:38:28;-2.10;78.10
68924;DHT22;55961;52.156;20.942;2022-12-11T10:41:03;-2.10;78.20
68924;DHT22;55961;52.156;20.942;2022-12-11T10:43:38;-2.10;78.50
68924;DHT22;55961;52.156;20.942;2022-12-11T10:46:06;-2.10;78.50
68924;DHT22;55961;52.156;20.942;2022-12-11T10:48:48;-2.10;78.30
68924;DHT22;55961;52.156;20.942;2022-12-11T10:51:15;-2.00;78.10
68924;DHT22;55961;52.156;20.942;2022-12-11T10:53:41;-2.00;78.10
68924;DHT22;55961;52.156;20.942;2022-12-11T10:56:10;-2.00;78.20
68924;DHT22;55961;52.156;20.942;2022-12-11T10:58:39;-2.00;78.20
68924;DHT22;55961;52.156;20.942;2022-12-11T11:01:17;-2.00;78.20
68924;DHT22;55961;52.156;20.942;2022-12-11T11:04:22;-2.00;78.30
68924;DHT22;55961;52.156;20.942;2022-12-11T11:07:12;-2.00;78.10
68924;DHT22;55961;52.156;20.942;2022-12-11T11:09:39;-2.00;78.00
68924;DHT22;55961;52.156;20.942;2022-12-11T11:12:21;-2.00;78.00
68924;DHT22;55961;52.156;20.942;2022-12-11T11:14:58;-2.00;77.90
68924;DHT22;55961;52.156;20.942;2022-12-11T11:17:25;-2.00;77.80
68924;DHT22;55961;52.156;20.942;2022-12-11T11:19:51;-2.00;77.90
68924;DHT22;55961;52.156;20.942;2022-12-11T11:22:18;-2.00;78.20
68924;DHT22;55961;52.156;20.942;2022-12-11T11:24:56;-2.00;78.20
68924;DHT22;55961;52.156;20.942;2022-12-11T11:27:34;-2.00;77.90
68924;DHT22;55961;52.156;20.942;2022-12-11T11:30:06;-2.00;77.70
68924;DHT22;55961;52.156;20.942;2022-12-11T11:32:41;-2.00;77.60
68924;DHT22;55961;52.156;20.942;2022-12-11T11:37:37;-2.00;77.30
68924;DHT22;55961;52.156;20.942;2022-12-11T11:40:30;-2.00;77.70
68924;DHT22;55961;52.156;20.942;2022-12-11T11:45:50;-2.00;77.70
68924;DHT22;55961;52.156;20.942;2022-12-11T11:48:32;-2.10;77.60
68924;DHT22;55961;52.156;20.942;2022-12-11T11:51:10;-2.10;77.70
68924;DHT22;55961;52.156;20.942;2022-12-11T11:53:38;-2.10;77.70
68924;DHT22;55961;52.156;20.942;2022-12-11T11:56:32;-2.10;77.80
68924;DHT22;55961;52.156;20.942;2022-12-11T12:01:48;-2.10;78.40
68924;DHT22;55961;52.156;20.942;2022-12-11T12:04:15;-2.10;78.30
68924;DHT22;55961;52.156;20.942;2022-12-11T12:07:12;-2.10;78.70
68924;DHT22;55961;52.156;20.942;2022-12-11T12:10:25;-2.10;78.70
68924;DHT22;55961;52.156;20.942;2022-12-11T12:15:46;-2.00;78.30
68924;DHT22;55961;52.156;20.942;2022-12-11T12:21:23;-2.00;78.10
68924;DHT22;55961;52.156;20.942;2022-12-11T12:24:11;-2.00;78.20
68924;DHT22;55961;52.156;20.942;2022-12-11T12:26:45;-2.00;78.40
68924;DHT22;55961;52.156;20.942;2022-12-11T12:48:18;-2.10;78.00
68924;DHT22;55961;52.156;20.942;2022-12-11T12:50:47;-2.10;78.30
68924;DHT22;55961;52.156;20.942;2022-12-11T12:53:20;-2.10;78.30
68924;DHT22;55961;52.156;20.942;2022-12-11T12:55:49;-2.10;78.00
68924;DHT22;55961;52.156;20.942;2022-12-11T13:01:16;-2.20;77.40
68924;DHT22;55961;52.156;20.942;2022-12-11T13:06:38;-2.20;77.50
68924;DHT22;55961;52.156;20.942;2022-12-11T13:09:23;-2.20;76.70
68924;DHT22;55961;52.156;20.942;2022-12-11T13:11:54;-2.30;76.30
68924;DHT22;55961;52.156;20.942;2022-12-11T13:16:50;-2.30;76.70
68924;DHT22;55961;52.156;20.942;2022-12-11T13:25:44;-2.40;77.20
68924;DHT22;55961;52.156;20.942;2022-12-11T13:27:35;-2.40;78.00
68924;DHT22;55961;52.156;20.942;2022-12-11T13:32:41;-2.40;78.00
68924;DHT22;55961;52.156;20.942;2022-12-11T13:35:17;-2.40;78.00
68924;DHT22;55961;52.156;20.942;2022-12-11T13:37:44;-2.40;78.00
68924;DHT22;55961;52.156;20.942;2022-12-11T13:42:50;-2.50;78.20
68924;DHT22;55961;52.156;20.942;2022-12-11T13:51:04;-2.50;77.80
68924;DHT22;55961;52.156;20.942;2022-12-11T13:53:31;-2.50;78.00
68924;DHT22;55961;52.156;20.942;2022-12-11T13:56:00;-2.50;78.00
68924;DHT22;55961;52.156;20.942;2022-12-11T13:58:33;-2.50;78.30
68924;DHT22;55961;52.156;20.942;2022-12-11T14:01:29;-2.60;78.00
68924;DHT22;55961;52.156;20.942;2022-12-11T14:04:05;-2.60;78.60
68924;DHT22;55961;52.156;20.942;2022-12-11T14:06:33;-2.60;78.60
68924;DHT22;55961;52.156;20.942;2022-12-11T14:09:07;-2.60;78.80
68924;DHT22;55961;52.156;20.942;2022-12-11T14:11:39;-2.60;78.60
68924;DHT22;55961;52.156;20.942;2022-12-11T14:14:13;-2.60;78.70
68924;DHT22;55961;52.156;20.942;2022-12-11T14:16:41;-2.60;79.20
68924;DHT22;55961;52.156;20.942;2022-12-11T14:19:08;-2.60;78.50
68924;DHT22;55961;52.156;20.942;2022-12-11T14:21:40;-2.60;78.50
68924;DHT22;55961;52.156;20.942;2022-12-11T14:24:11;-2.70;78.50
68924;DHT22;55961;52.156;20.942;2022-12-11T14:26:38;-2.70;78.20
68924;DHT22;55961;52.156;20.942;2022-12-11T14:29:06;-2.70;78.00
68924;DHT22;55961;52.156;20.942;2022-12-11T14:31:36;-2.70;78.00
68924;DHT22;55961;52.156;20.942;2022-12-11T14:36:40;-2.80;78.40
68924;DHT22;55961;52.156;20.942;2022-12-11T14:39:12;-2.80;78.40
68924;DHT22;55961;52.156;20.942;2022-12-11T14:41:46;-2.80;78.70
68924;DHT22;55961;52.156;20.942;2022-12-11T14:44:15;-2.80;78.70
68924;DHT22;55961;52.156;20.942;2022-12-11T14:46:48;-2.80;78.60
68924;DHT22;55961;52.156;20.942;2022-12-11T14:52:17;-2.80;78.50
68924;DHT22;55961;52.156;20.942;2022-12-11T14:54:49;-2.90;78.90
68924;DHT22;55961;52.156;20.942;2022-12-11T14:57:23;-2.80;78.90
68924;DHT22;55961;52.156;20.942;2022-12-11T14:59:52;-2.90;79.00
68924;DHT22;55961;52.156;20.942;2022-12-11T15:02:30;-2.90;78.60
68924;DHT22;55961;52.156;20.942;2022-12-11T15:05:17;-2.90;78.70
68924;DHT22;55961;52.156;20.942;2022-12-11T15:08:00;-2.90;78.70
68924;DHT22;55961;52.156;20.942;2022-12-11T15:10:31;-2.90;78.90
68924;DHT22;55961;52.156;20.942;2022-12-11T15:13:00;-3.00;79.00
68924;DHT22;55961;52.156;20.942;2022-12-11T15:15:29;-3.00;79.00
68924;DHT22;55961;52.156;20.942;2022-12-11T15:17:56;-3.00;78.80
68924;DHT22;55961;52.156;20.942;2022-12-11T15:20:27;-3.00;78.90
68924;DHT22;55961;52.156;20.942;2022-12-11T15:22:56;-3.00;78.80
68924;DHT22;55961;52.156;20.942;2022-12-11T15:25:25;-3.00;78.60
68924;DHT22;55961;52.156;20.942;2022-12-11T15:27:57;-3.00;78.60
68924;DHT22;55961;52.156;20.942;2022-12-11T15:30:33;-3.00;78.60
68924;DHT22;55961;52.156;20.942;2022-12-11T15:35:36;-3.10;79.00
68924;DHT22;55961;52.156;20.942;2022-12-11T15:38:02;-3.10;79.00
68924;DHT22;55961;52.156;20.942;2022-12-11T15:40:28;-3.10;79.00
68924;DHT22;55961;52.156;20.942;2022-12-11T15:43:00;-3.10;79.00
68924;DHT22;55961;52.156;20.942;2022-12-11T15:45:27;-3.10;79.00
68924;DHT22;55961;52.156;20.942;2022-12-11T15:47:54;-3.10;79.10
68924;DHT22;55961;52.156;20.942;2022-12-11T15:50:22;-3.10;79.20
68924;DHT22;55961;52.156;20.942;2022-12-11T15:52:50;-3.10;79.40
68924;DHT22;55961;52.156;20.942;2022-12-11T15:55:17;-3.10;79.60
68924;DHT22;55961;52.156;20.942;2022-12-11T15:57:58;-3.10;79.90
68924;DHT22;55961;52.156;20.942;2022-12-11T16:00:24;-3.10;80.00
68924;DHT22;55961;52.156;20.942;2022-12-11T16:02:53;-3.10;79.80
68924;DHT22;55961;52.156;20.942;2022-12-11T16:05:22;-3.10;79.90
68924;DHT22;55961;52.156;20.942;2022-12-11T16:07:51;-3.10;79.70
68924;DHT22;55961;52.156;20.942;2022-12-11T16:10:20;-3.10;79.70
68924;DHT22;55961;52.156;20.942;2022-12-11T16:12:57;-3.10;79.60
68924;DHT22;55961;52.156;20.942;2022-12-11T16:15:27;-3.10;79.40
68924;DHT22;55961;52.156;20.942;2022-12-11T16:18:05;-3.10;79.40
68924;DHT22;55961;52.156;20.942;2022-12-11T16:20:32;-3.10;79.30
68924;DHT22;55961;52.156;20.942;2022-12-11T16:23:05;-3.10;79.40
68924;DHT22;55961;52.156;20.942;2022-12-11T16:25:32;-3.10;79.40
68924;DHT22;55961;52.156;20.942;2022-12-11T16:28:00;-3.20;79.10
68924;DHT22;55961;52.156;20.942;2022-12-11T16:30:27;-3.20;79.10
68924;DHT22;55961;52.156;20.942;2022-12-11T16:32:54;-3.20;78.90
68924;DHT22;55961;52.156;20.942;2022-12-11T16:35:20;-3.20;79.00
68924;DHT22;55961;52.156;20.942;2022-12-11T16:37:51;-3.20;79.20
68924;DHT22;55961;52.156;20.942;2022-12-11T16:40:18;-3.20;79.20
68924;DHT22;55961;52.156;20.942;2022-12-11T16:42:44;-3.30;79.30
68924;DHT22;55961;52.156;20.942;2022-12-11T16:45:15;-3.30;79.40
68924;DHT22;55961;52.156;20.942;2022-12-11T16:47:41;-3.30;79.50
68924;DHT22;55961;52.156;20.942;2022-12-11T16:50:08;-3.30;79.70
68924;DHT22;55961;52.156;20.942;2022-12-11T16:52:34;-3.30;79.60
68924;DHT22;55961;52.156;20.942;2022-12-11T16:55:00;-3.30;79.60
68924;DHT22;55961;52.156;20.942;2022-12-11T16:57:26;-3.30;79.70
68924;DHT22;55961;52.156;20.942;2022-12-11T16:59:52;-3.30;79.80
68924;DHT22;55961;52.156;20.942;2022-12-11T17:02:18;-3.30;80.00
68924;DHT22;55961;52.156;20.942;2022-12-11T17:04:45;-3.30;80.20
68924;DHT22;55961;52.156;20.942;2022-12-11T17:07:11;-3.30;80.30
68924;DHT22;55961;52.156;20.942;2022-12-11T17:09:37;-3.30;80.30
68924;DHT22;55961;52.156;20.942;2022-12-11T17:12:04;-3.30;80.10
68924;DHT22;55961;52.156;20.942;2022-12-11T17:14:30;-3.40;80.20
68924;DHT22;55961;52.156;20.942;2022-12-11T17:16:56;-3.40;80.40
68924;DHT22;55961;52.156;20.942;2022-12-11T17:19:22;-3.40;80.40
68924;DHT22;55961;52.156;20.942;2022-12-11T17:21:48;-3.30;80.50